Time;durP1;ratioP1;P1;durP2;ratioP2;P2;SDS_P1;SDS_P2;PMS_P1;PMS_P2;Temp;Humidity;BMP_temperature;BMP_pressure;BME280_temperature;BME280_humidity;BME280_pressure;Samples;Min_cycle;Max_cycle;Signal;HPM_P1;HPM_P2
2022/07/01 00:00:56;;;;;;;;;;;18.20;99.90;;;;;;5076721;28;20273;-66
2022/07/01 00:03:25;;;;;;;;;;;18.20;99.90;;;;;;5070910;28;20205;-66
2022/07/01 00:05:53;;;;;;;;;;;18.10;99.90;;;;;;5071624;28;20194;-66
2022/07/01 00:08:21;;;;;;;;;;;18.00;99.90;;;;;;5071625;28;20259;-66
2022/07/01 00:10:49;;;;;;;;;;;18.00;99.90;;;;;;5071365;28;20194;-66
2022/07/01 00:13:16;;;;;;;;;;;17.80;99.90;;;;;;5070752;28;20661;-66
2022/07/01 00:15:44;;;;;;;;;;;17.90;99.90;;;;;;5071616;28;20197;-66
2022/07/01 00:18:12;;;;;;;;;;;18.00;99.90;;;;;;5064252;28;20202;-66
2022/07/01 00:20:41;;;;;;;;;;;18.10;99.90;;;;;;5064798;28;20209;-65
2022/07/01 00:23:09;;;;;;;;;;;18.20;99.90;;;;;;5064741;28;20641;-66
2022/07/01 00:25:37;;;;;;;;;;;18.30;99.90;;;;;;5071361;28;20198;-66
2022/07/01 00:28:05;;;;;;;;;;;18.00;99.90;;;;;;5079102;28;20207;-65
2022/07/01 00:30:32;;;;;;;;;;;17.90;99.90;;;;;;5069041;28;20197;-65
2022/07/01 00:33:00;;;;;;;;;;;17.70;99.90;;;;;;5063141;28;20198;-66
2022/07/01 00:35:28;;;;;;;;;;;17.70;99.90;;;;;;5064859;28;20801;-65
2022/07/01 00:37:57;;;;;;;;;;;17.70;99.90;;;;;;5064698;28;20260;-66
2022/07/01 00:40:25;;;;;;;;;;;17.60;99.90;;;;;;5064724;28;20201;-66
2022/07/01 00:42:53;;;;;;;;;;;17.40;99.90;;;;;;5063705;28;20206;-66
2022/07/01 00:45:21;;;;;;;;;;;17.30;99.90;;;;;;5065886;28;20255;-66
2022/07/01 00:47:50;;;;;;;;;;;17.30;99.90;;;;;;5064538;28;20198;-65
2022/07/01 00:50:18;;;;;;;;;;;17.30;99.90;;;;;;5062163;28;20201;-65
2022/07/01 00:52:46;;;;;;;;;;;17.30;99.90;;;;;;5067128;28;20197;-65
2022/07/01 00:55:15;;;;;;;;;;;17.30;99.90;;;;;;5061473;28;20197;-65
2022/07/01 00:57:44;;;;;;;;;;;17.40;99.90;;;;;;5068429;28;20186;-65
2022/07/01 01:00:13;;;;;;;;;;;17.40;99.90;;;;;;5067074;28;20214;-66
2022/07/01 01:02:41;;;;;;;;;;;17.50;99.90;;;;;;5066066;28;20615;-66
2022/07/01 01:05:09;;;;;;;;;;;17.50;99.90;;;;;;5065885;28;20197;-66
2022/07/01 01:07:37;;;;;;;;;;;17.50;99.90;;;;;;5065824;28;20198;-66
2022/07/01 01:10:05;;;;;;;;;;;17.40;99.90;;;;;;5063603;28;20558;-67
2022/07/01 01:12:34;;;;;;;;;;;17.50;99.90;;;;;;5066011;28;20198;-66
2022/07/01 01:15:03;;;;;;;;;;;17.40;99.90;;;;;;5067752;28;20210;-65
2022/07/01 01:17:31;;;;;;;;;;;17.50;99.90;;;;;;5068420;28;20243;-66
2022/07/01 01:19:58;;;;;;;;;;;17.50;99.90;;;;;;5067152;28;20264;-65
2022/07/01 01:22:28;;;;;;;;;;;17.50;99.90;;;;;;5063465;28;20229;-66
2022/07/01 01:24:58;;;;;;;;;;;17.60;99.90;;;;;;5068743;28;20198;-65
2022/07/01 01:27:25;;;;;;;;;;;17.60;99.90;;;;;;5066306;28;20202;-66
2022/07/01 01:29:53;;;;;;;;;;;17.70;99.90;;;;;;5071569;28;20194;-66
2022/07/01 01:32:21;;;;;;;;;;;17.80;99.90;;;;;;5068668;28;20190;-66
2022/07/01 01:34:49;;;;;;;;;;;17.90;99.90;;;;;;5066083;28;20654;-66
2022/07/01 01:37:17;;;;;;;;;;;17.90;99.90;;;;;;5067630;28;20193;-66
2022/07/01 01:39:46;;;;;;;;;;;18.10;99.90;;;;;;5066657;28;20244;-66
2022/07/01 01:42:14;;;;;;;;;;;18.00;99.90;;;;;;5063366;28;20283;-66
2022/07/01 01:44:41;;;;;;;;;;;18.00;99.90;;;;;;5069947;28;20198;-65
2022/07/01 01:47:09;;;;;;;;;;;17.80;99.90;;;;;;5070906;28;20617;-66
2022/07/01 01:49:37;;;;;;;;;;;17.70;99.90;;;;;;5074043;28;20648;-65
2022/07/01 01:52:06;;;;;;;;;;;17.50;99.90;;;;;;5067757;28;20206;-65
2022/07/01 01:54:36;;;;;;;;;;;17.30;99.90;;;;;;5070552;28;20202;-66
2022/07/01 01:57:06;;;;;;;;;;;17.10;99.90;;;;;;5065290;28;20201;-66
2022/07/01 01:59:34;;;;;;;;;;;17.00;99.90;;;;;;5070765;28;20266;-66
2022/07/01 02:02:01;;;;;;;;;;;16.90;99.90;;;;;;5066692;28;20197;-67
2022/07/01 02:04:29;;;;;;;;;;;16.80;99.90;;;;;;5069578;28;20194;-66
2022/07/01 02:06:57;;;;;;;;;;;16.70;99.90;;;;;;5069102;28;20208;-67
2022/07/01 02:09:25;;;;;;;;;;;16.80;99.90;;;;;;5070340;28;20194;-67
2022/07/01 02:11:53;;;;;;;;;;;16.80;99.90;;;;;;5070612;28;20213;-66
2022/07/01 02:14:23;;;;;;;;;;;16.70;99.90;;;;;;5071121;28;20675;-66
2022/07/01 02:16:50;;;;;;;;;;;16.70;99.90;;;;;;5070860;28;20268;-67
2022/07/01 02:19:18;;;;;;;;;;;16.60;99.90;;;;;;5072287;28;20217;-67
2022/07/01 02:21:46;;;;;;;;;;;16.70;99.90;;;;;;5070868;28;20609;-66
2022/07/01 02:24:14;;;;;;;;;;;16.60;99.90;;;;;;5068298;28;20686;-66
2022/07/01 02:26:42;;;;;;;;;;;16.50;99.90;;;;;;5070688;28;20198;-66
2022/07/01 02:29:09;;;;;;;;;;;16.50;99.90;;;;;;5073852;28;20237;-66
2022/07/01 02:31:39;;;;;;;;;;;16.30;99.90;;;;;;5070581;28;20251;-66
2022/07/01 02:34:07;;;;;;;;;;;16.30;99.90;;;;;;5067610;28;20210;-66
2022/07/01 02:36:34;;;;;;;;;;;16.10;99.90;;;;;;5068534;28;20198;-65
2022/07/01 02:39:02;;;;;;;;;;;16.20;99.90;;;;;;5068484;28;20271;-66
2022/07/01 02:41:31;;;;;;;;;;;16.10;99.90;;;;;;5068813;28;20239;-66
2022/07/01 02:43:59;;;;;;;;;;;16.10;99.90;;;;;;5071090;28;20202;-66
2022/07/01 02:46:26;;;;;;;;;;;16.10;99.90;;;;;;5069477;28;20264;-66
2022/07/01 02:48:55;;;;;;;;;;;16.20;99.90;;;;;;5068396;28;20269;-66
2022/07/01 02:51:23;;;;;;;;;;;16.20;99.90;;;;;;5067821;28;20258;-66
2022/07/01 02:53:51;;;;;;;;;;;16.20;99.90;;;;;;5069401;28;20206;-66
2022/07/01 02:56:19;;;;;;;;;;;16.20;99.90;;;;;;5109201;22;20208;-64
2022/07/01 02:58:46;;;;;;;;;;;16.20;99.90;;;;;;5111350;28;20868;-64
2022/07/01 03:01:14;;;;;;;;;;;16.10;99.90;;;;;;5117717;27;20200;-65
2022/07/01 03:03:42;;;;;;;;;;;16.20;99.90;;;;;;5111091;27;20193;-65
2022/07/01 03:06:11;;;;;;;;;;;16.30;99.90;;;;;;5103474;27;20202;-65
2022/07/01 03:08:39;;;;;;;;;;;16.20;99.90;;;;;;5087556;28;20243;-66
2022/07/01 03:11:06;;;;;;;;;;;16.20;99.90;;;;;;5090205;28;20255;-65
2022/07/01 03:13:40;;;;;;;;;;;16.20;99.90;;;;;;5088465;28;20279;-65
2022/07/01 03:16:08;;;;;;;;;;;16.20;99.90;;;;;;5100883;28;20198;-65
2022/07/01 03:18:36;;;;;;;;;;;16.20;99.90;;;;;;5097760;28;20193;-64
2022/07/01 03:21:03;;;;;;;;;;;16.20;99.90;;;;;;5094373;28;20613;-65
2022/07/01 03:23:33;;;;;;;;;;;16.20;99.90;;;;;;5093532;28;20247;-65
2022/07/01 03:26:00;;;;;;;;;;;16.30;99.90;;;;;;5097349;28;20242;-65
2022/07/01 03:28:28;;;;;;;;;;;16.30;99.90;;;;;;5089671;28;20193;-65
2022/07/01 03:30:56;;;;;;;;;;;16.40;99.90;;;;;;5089890;28;20202;-65
2022/07/01 03:33:24;;;;;;;;;;;16.40;99.90;;;;;;5098785;28;20568;-65
2022/07/01 03:35:57;;;;;;;;;;;16.40;99.90;;;;;;5096106;28;20197;-65
2022/07/01 03:38:25;;;;;;;;;;;16.50;99.90;;;;;;5091644;28;20229;-65
2022/07/01 03:40:54;;;;;;;;;;;16.50;99.90;;;;;;5093262;28;20334;-65
2022/07/01 03:43:22;;;;;;;;;;;16.60;99.90;;;;;;5090725;28;20197;-65
2022/07/01 03:45:50;;;;;;;;;;;16.70;99.90;;;;;;5094852;28;20213;-65
2022/07/01 03:48:17;;;;;;;;;;;16.80;99.90;;;;;;5091951;28;20790;-65
2022/07/01 03:50:45;;;;;;;;;;;16.80;99.90;;;;;;5096857;28;20239;-65
2022/07/01 03:56:00;;;;;;;;;;;16.90;99.90;;;;;;5089787;28;20219;-65
2022/07/01 03:58:27;;;;;;;;;;;16.80;99.90;;;;;;5089736;28;20185;-65
2022/07/01 04:00:55;;;;;;;;;;;16.90;99.90;;;;;;5086888;28;20258;-65
2022/07/01 04:03:23;;;;;;;;;;;16.90;99.90;;;;;;5087414;28;20714;-67
2022/07/01 04:05:51;;;;;;;;;;;16.90;99.90;;;;;;5099099;28;20192;-65
2022/07/01 04:08:18;;;;;;;;;;;16.80;99.90;;;;;;5090606;28;20846;-66
2022/07/01 04:10:46;;;;;;;;;;;16.80;99.90;;;;;;5094350;28;20189;-66
2022/07/01 04:13:15;;;;;;;;;;;16.70;99.90;;;;;;5087048;28;20248;-66
2022/07/01 04:15:59;;;;;;;;;;;16.70;99.90;;;;;;5098117;28;20205;-65
2022/07/01 04:18:27;;;;;;;;;;;16.60;99.90;;;;;;5090395;28;20204;-65
2022/07/01 04:23:41;;;;;;;;;;;16.50;99.90;;;;;;5090190;28;20193;-64
2022/07/01 04:26:09;;;;;;;;;;;16.50;99.90;;;;;;5093258;28;20230;-66
2022/07/01 04:28:58;;;;;;;;;;;16.60;99.90;;;;;;5085469;28;20224;-64
2022/07/01 04:31:26;;;;;;;;;;;16.60;99.90;;;;;;5091236;28;20260;-64
2022/07/01 04:33:54;;;;;;;;;;;16.50;99.90;;;;;;5091561;28;20896;-64
2022/07/01 04:36:22;;;;;;;;;;;16.60;99.90;;;;;;5091358;28;20163;-65
2022/07/01 04:38:50;;;;;;;;;;;16.70;99.90;;;;;;5085275;28;20219;-65
2022/07/01 04:44:05;;;;;;;;;;;16.60;99.90;;;;;;5091107;28;20310;-65
2022/07/01 04:46:32;;;;;;;;;;;16.60;99.90;;;;;;5091141;28;20209;-66
2022/07/01 04:49:00;;;;;;;;;;;16.70;99.90;;;;;;5085718;28;20189;-65
2022/07/01 04:51:28;;;;;;;;;;;16.70;99.90;;;;;;5091867;28;20245;-65
2022/07/01 04:53:56;;;;;;;;;;;16.60;99.90;;;;;;5089159;28;20216;-64
2022/07/01 04:56:26;;;;;;;;;;;16.60;99.90;;;;;;5085541;28;20703;-64
2022/07/01 04:58:54;;;;;;;;;;;16.50;99.90;;;;;;5091892;28;20197;-64
2022/07/01 05:01:23;;;;;;;;;;;16.50;99.90;;;;;;5086923;28;20208;-65
2022/07/01 05:03:51;;;;;;;;;;;16.40;99.90;;;;;;5084732;28;20230;-65
2022/07/01 05:06:19;;;;;;;;;;;16.40;99.90;;;;;;5088596;28;20202;-65
2022/07/01 05:08:47;;;;;;;;;;;16.30;99.90;;;;;;5084055;28;20197;-65
2022/07/01 05:11:15;;;;;;;;;;;16.30;99.90;;;;;;5089139;28;20697;-65
2022/07/01 05:13:42;;;;;;;;;;;16.30;99.90;;;;;;5087042;28;20318;-65
2022/07/01 05:16:10;;;;;;;;;;;16.30;99.90;;;;;;5089708;28;20212;-64
2022/07/01 05:24:10;;;;;;;;;;;16.20;99.90;;;;;;5087330;28;21138;-65
2022/07/01 05:26:38;;;;;;;;;;;16.20;99.90;;;;;;5087934;28;20835;-66
2022/07/01 05:29:06;;;;;;;;;;;16.20;99.90;;;;;;5086871;28;20075;-66
2022/07/01 05:31:34;;;;;;;;;;;16.30;99.90;;;;;;5090418;28;20627;-65
2022/07/01 05:34:03;;;;;;;;;;;16.30;99.90;;;;;;5089851;28;20308;-64
2022/07/01 05:36:32;;;;;;;;;;;16.20;99.90;;;;;;5090605;28;20205;-64
2022/07/01 05:38:59;;;;;;;;;;;16.20;99.90;;;;;;5086118;28;20262;-66
2022/07/01 05:41:27;;;;;;;;;;;16.30;99.90;;;;;;5090303;28;20209;-64
2022/07/01 05:43:55;;;;;;;;;;;16.40;99.90;;;;;;5093558;28;20228;-65
2022/07/01 05:46:23;;;;;;;;;;;16.60;99.90;;;;;;5089900;28;20208;-65
2022/07/01 05:48:51;;;;;;;;;;;16.80;99.90;;;;;;5087835;28;20692;-63
2022/07/01 05:51:20;;;;;;;;;;;16.90;99.90;;;;;;5095384;28;20613;-65
2022/07/01 05:53:48;;;;;;;;;;;16.90;99.90;;;;;;5087880;28;20252;-65
2022/07/01 05:56:16;;;;;;;;;;;16.90;99.90;;;;;;5087511;28;20213;-64
2022/07/01 05:58:43;;;;;;;;;;;17.10;99.90;;;;;;5078883;28;20293;-65
2022/07/01 06:01:11;;;;;;;;;;;17.10;99.90;;;;;;5081157;28;20198;-65
2022/07/01 06:03:39;;;;;;;;;;;17.00;99.90;;;;;;5079848;28;20216;-65
2022/07/01 06:06:07;;;;;;;;;;;17.00;99.90;;;;;;5081525;28;20201;-66
2022/07/01 06:08:36;;;;;;;;;;;17.10;99.90;;;;;;5083856;28;20198;-66
2022/07/01 06:11:04;;;;;;;;;;;16.90;99.90;;;;;;5065346;28;20259;-65
2022/07/01 06:13:32;;;;;;;;;;;16.90;99.90;;;;;;5076771;28;20205;-65
2022/07/01 06:16:00;;;;;;;;;;;16.80;99.90;;;;;;5090219;28;20209;-65
2022/07/01 06:18:28;;;;;;;;;;;16.80;99.90;;;;;;5090959;28;20202;-65
2022/07/01 06:20:55;;;;;;;;;;;16.90;99.90;;;;;;5090772;28;20670;-65
2022/07/01 06:23:23;;;;;;;;;;;17.00;99.90;;;;;;5090149;28;20198;-64
2022/07/01 06:25:52;;;;;;;;;;;16.80;99.90;;;;;;5089703;28;20205;-64
2022/07/01 06:28:20;;;;;;;;;;;16.90;99.90;;;;;;5083830;28;20212;-65
2022/07/01 06:30:48;;;;;;;;;;;16.80;99.90;;;;;;5085052;28;20666;-64
2022/07/01 06:33:15;;;;;;;;;;;16.90;99.90;;;;;;5094030;28;20550;-65
2022/07/01 06:35:43;;;;;;;;;;;17.00;99.90;;;;;;5094303;28;20205;-65
2022/07/01 06:38:11;;;;;;;;;;;17.40;99.90;;;;;;5094267;28;20250;-65
2022/07/01 06:40:39;;;;;;;;;;;17.50;99.90;;;;;;5094000;28;20727;-65
2022/07/01 06:43:08;;;;;;;;;;;17.50;99.90;;;;;;5093560;28;20201;-65
2022/07/01 06:45:36;;;;;;;;;;;17.40;99.90;;;;;;5092921;28;20205;-65
2022/07/01 06:48:04;;;;;;;;;;;17.40;99.90;;;;;;5094450;28;20198;-64
2022/07/01 06:50:31;;;;;;;;;;;17.30;99.90;;;;;;5093840;28;20190;-65
2022/07/01 06:52:59;;;;;;;;;;;17.30;99.90;;;;;;5093217;28;20701;-64
2022/07/01 06:55:27;;;;;;;;;;;17.40;99.90;;;;;;5093558;28;20209;-64
2022/07/01 06:57:55;;;;;;;;;;;17.50;99.90;;;;;;5094840;28;20678;-64
2022/07/01 07:00:24;;;;;;;;;;;17.50;99.90;;;;;;5093916;28;20224;-65
2022/07/01 07:02:52;;;;;;;;;;;17.50;99.90;;;;;;5093667;28;20212;-64
2022/07/01 07:05:20;;;;;;;;;;;17.50;99.90;;;;;;5093892;28;20212;-63
2022/07/01 07:07:47;;;;;;;;;;;17.50;99.90;;;;;;5093986;28;20227;-65
2022/07/01 07:10:15;;;;;;;;;;;17.40;99.90;;;;;;5094105;28;20251;-64
2022/07/01 07:12:43;;;;;;;;;;;17.30;99.90;;;;;;5075355;28;20213;-64
2022/07/01 07:15:11;;;;;;;;;;;17.10;99.90;;;;;;5093815;28;20250;-64
2022/07/01 07:17:40;;;;;;;;;;;17.20;99.90;;;;;;5094241;28;20622;-63
2022/07/01 07:20:09;;;;;;;;;;;17.20;99.90;;;;;;5093668;28;20242;-64
2022/07/01 07:22:37;;;;;;;;;;;17.20;99.90;;;;;;5093273;28;20251;-64
2022/07/01 07:25:05;;;;;;;;;;;17.30;99.90;;;;;;5093863;28;20674;-64
2022/07/01 07:27:32;;;;;;;;;;;17.40;99.90;;;;;;5093522;28;20604;-64
2022/07/01 07:30:03;;;;;;;;;;;17.50;99.90;;;;;;5093133;28;20559;-64
2022/07/01 07:32:30;;;;;;;;;;;17.50;99.90;;;;;;5092892;28;20201;-65
2022/07/01 07:34:59;;;;;;;;;;;17.50;99.90;;;;;;5093630;28;20201;-64
2022/07/01 07:37:28;;;;;;;;;;;17.70;99.90;;;;;;5093553;28;20201;-65
2022/07/01 07:39:55;;;;;;;;;;;17.50;99.90;;;;;;5093464;28;20205;-64
2022/07/01 07:42:23;;;;;;;;;;;17.50;99.90;;;;;;5092170;28;20254;-64
2022/07/01 07:44:51;;;;;;;;;;;17.50;99.90;;;;;;5074662;28;20206;-64
2022/07/01 07:47:18;;;;;;;;;;;17.40;99.90;;;;;;5093770;28;20262;-64
2022/07/01 07:49:46;;;;;;;;;;;17.60;99.90;;;;;;5093203;28;20197;-65
2022/07/01 07:52:15;;;;;;;;;;;17.80;99.90;;;;;;5092415;28;20328;-64
2022/07/01 07:54:44;;;;;;;;;;;17.70;99.90;;;;;;5093028;28;20262;-64
2022/07/01 07:57:13;;;;;;;;;;;17.60;99.90;;;;;;5081567;28;20206;-64
2022/07/01 07:59:40;;;;;;;;;;;17.50;99.90;;;;;;5084572;28;20666;-65
2022/07/01 08:02:08;;;;;;;;;;;17.30;99.90;;;;;;5092138;28;20201;-63
2022/07/01 08:04:36;;;;;;;;;;;17.20;99.90;;;;;;5092656;28;20201;-64
2022/07/01 08:07:04;;;;;;;;;;;17.10;99.90;;;;;;5092624;28;20212;-63
2022/07/01 08:09:34;;;;;;;;;;;17.00;99.90;;;;;;5092617;28;20300;-64
2022/07/01 08:12:02;;;;;;;;;;;17.00;99.90;;;;;;5091490;28;20201;-65
2022/07/01 08:14:30;;;;;;;;;;;17.10;99.90;;;;;;5092600;28;20201;-64
2022/07/01 08:16:58;;;;;;;;;;;17.00;99.90;;;;;;5092429;28;20233;-64
2022/07/01 08:19:26;;;;;;;;;;;17.00;99.90;;;;;;5092341;28;20274;-63
2022/07/01 08:21:53;;;;;;;;;;;16.90;99.90;;;;;;5092229;28;20193;-64
2022/07/01 08:24:21;;;;;;;;;;;16.90;99.90;;;;;;5091711;28;20731;-64
2022/07/01 08:26:50;;;;;;;;;;;17.00;99.90;;;;;;5087284;28;20247;-64
2022/07/01 08:29:18;;;;;;;;;;;17.00;99.90;;;;;;5084511;28;20739;-64
2022/07/01 08:31:46;;;;;;;;;;;17.10;99.90;;;;;;5091286;28;20251;-64
2022/07/01 08:34:20;;;;;;;;;;;17.20;99.90;;;;;;5091905;28;20205;-64
2022/07/01 08:36:48;;;;;;;;;;;17.30;99.90;;;;;;5092059;28;20197;-64
2022/07/01 08:39:16;;;;;;;;;;;17.50;99.90;;;;;;5091782;28;20200;-65
2022/07/01 08:41:43;;;;;;;;;;;17.70;99.90;;;;;;5091641;28;20193;-64
2022/07/01 08:44:12;;;;;;;;;;;17.70;99.90;;;;;;5091399;28;20201;-64
2022/07/01 08:46:41;;;;;;;;;;;17.80;99.90;;;;;;5091939;28;20205;-64
2022/07/01 08:49:09;;;;;;;;;;;17.90;99.90;;;;;;5092086;28;20243;-64
2022/07/01 08:51:36;;;;;;;;;;;17.80;99.90;;;;;;5091348;28;20202;-64
2022/07/01 08:54:04;;;;;;;;;;;17.90;99.90;;;;;;5090629;28;20258;-64
2022/07/01 08:56:45;;;;;;;;;;;18.00;99.90;;;;;;5109270;22;20225;-68
2022/07/01 08:59:23;;;;;;;;;;;17.90;99.90;;;;;;5125993;27;20200;-67
2022/07/01 09:01:55;;;;;;;;;;;18.00;99.90;;;;;;5111987;28;20258;-67
2022/07/01 09:04:23;;;;;;;;;;;18.10;99.90;;;;;;5111940;28;20253;-67
2022/07/01 09:06:51;;;;;;;;;;;18.10;99.90;;;;;;5111742;28;20201;-67
2022/07/01 09:09:20;;;;;;;;;;;18.10;99.90;;;;;;5111551;28;20201;-67
2022/07/01 09:11:53;;;;;;;;;;;18.20;99.90;;;;;;5111085;28;20200;-67
2022/07/01 09:14:22;;;;;;;;;;;18.20;99.90;;;;;;5111116;28;20715;-67
2022/07/01 09:16:52;;;;;;;;;;;18.20;99.90;;;;;;5111365;28;20205;-67
2022/07/01 09:19:21;;;;;;;;;;;18.20;99.90;;;;;;5111381;28;20532;-67
2022/07/01 09:21:50;;;;;;;;;;;18.10;99.90;;;;;;5111576;28;20458;-67
2022/07/01 09:24:25;;;;;;;;;;;18.10;99.90;;;;;;5110852;28;20201;-67
2022/07/01 09:26:54;;;;;;;;;;;18.00;99.90;;;;;;5104143;28;20243;-67
2022/07/01 09:29:27;;;;;;;;;;;17.90;99.90;;;;;;5094892;28;20198;-67
2022/07/01 09:31:55;;;;;;;;;;;17.80;99.90;;;;;;5091259;28;20205;-67
2022/07/01 09:34:23;;;;;;;;;;;17.70;99.90;;;;;;5091682;28;20538;-67
2022/07/01 09:36:55;;;;;;;;;;;17.60;99.90;;;;;;5091696;28;20682;-67
2022/07/01 09:39:23;;;;;;;;;;;17.50;99.90;;;;;;5085027;28;20623;-67
2022/07/01 09:42:07;;;;;;;;;;;17.50;99.90;;;;;;5090576;28;20201;-67
2022/07/01 09:44:51;;;;;;;;;;;17.50;99.90;;;;;;5091603;28;20258;-67
2022/07/01 09:47:23;;;;;;;;;;;17.50;99.90;;;;;;5091689;28;20197;-67
2022/07/01 09:49:50;;;;;;;;;;;17.60;99.90;;;;;;5091693;28;20616;-67
2022/07/01 09:52:18;;;;;;;;;;;17.80;99.90;;;;;;5091037;28;20231;-67
2022/07/01 09:54:47;;;;;;;;;;;18.00;99.90;;;;;;5091366;28;20686;-67
2022/07/01 09:57:15;;;;;;;;;;;18.30;99.90;;;;;;5091425;28;20569;-67
2022/07/01 09:59:44;;;;;;;;;;;18.60;99.90;;;;;;5099831;28;20251;-67
2022/07/01 10:02:12;;;;;;;;;;;19.00;99.90;;;;;;5089080;28;20239;-65
2022/07/01 10:04:42;;;;;;;;;;;19.50;99.90;;;;;;5091221;28;20224;-64
2022/07/01 10:07:19;;;;;;;;;;;19.80;99.90;;;;;;5095481;28;20247;-65
2022/07/01 10:10:11;;;;;;;;;;;20.00;99.90;;;;;;5095261;28;20246;-65
2022/07/01 10:12:42;;;;;;;;;;;20.40;99.90;;;;;;5094422;28;20238;-65
2022/07/01 10:15:15;;;;;;;;;;;20.80;99.90;;;;;;5094940;28;20197;-65
2022/07/01 10:17:44;;;;;;;;;;;21.10;99.90;;;;;;5095172;28;20209;-65
2022/07/01 10:20:13;;;;;;;;;;;21.40;99.90;;;;;;5095006;28;20227;-65
2022/07/01 10:22:47;;;;;;;;;;;21.70;99.90;;;;;;5094194;28;20190;-65
2022/07/01 10:25:32;;;;;;;;;;;21.70;99.90;;;;;;5094971;28;20251;-64
2022/07/01 10:28:21;;;;;;;;;;;21.90;99.90;;;;;;5101685;28;20215;-65
2022/07/01 10:30:50;;;;;;;;;;;21.80;99.90;;;;;;5090879;28;20670;-64
2022/07/01 10:33:28;;;;;;;;;;;21.90;99.90;;;;;;5094189;28;20254;-65
2022/07/01 10:35:56;;;;;;;;;;;22.00;99.90;;;;;;5094959;28;20205;-64
2022/07/01 10:38:24;;;;;;;;;;;22.30;99.90;;;;;;5094761;28;20193;-65
2022/07/01 10:40:52;;;;;;;;;;;22.60;99.90;;;;;;5094580;28;20250;-65
2022/07/01 10:43:33;;;;;;;;;;;22.80;99.90;;;;;;5093864;28;20197;-64
2022/07/01 10:46:02;;;;;;;;;;;23.00;99.90;;;;;;5094619;28;20205;-65
2022/07/01 10:48:31;;;;;;;;;;;22.80;99.90;;;;;;5114417;28;20233;-64
2022/07/01 10:50:59;;;;;;;;;;;22.70;99.90;;;;;;5087549;28;20194;-64
2022/07/01 10:53:45;;;;;;;;;;;22.70;99.90;;;;;;5093479;28;20201;-65
2022/07/01 10:56:17;;;;;;;;;;;22.70;99.90;;;;;;5094419;28;20654;-64
2022/07/01 10:58:44;;;;;;;;;;;22.50;99.90;;;;;;5102793;28;20197;-64
2022/07/01 11:01:13;;;;;;;;;;;22.30;99.90;;;;;;5098056;28;20618;-64
2022/07/01 11:03:42;;;;;;;;;;;22.10;99.90;;;;;;5093559;28;20254;-65
2022/07/01 11:06:10;;;;;;;;;;;22.10;99.90;;;;;;5094138;28;20201;-64
2022/07/01 11:08:38;;;;;;;;;;;22.00;99.90;;;;;;5094266;28;20204;-64
2022/07/01 11:11:06;;;;;;;;;;;21.80;99.90;;;;;;5094044;28;20201;-64
2022/07/01 11:13:35;;;;;;;;;;;21.80;99.90;;;;;;5093657;28;20556;-65
2022/07/01 11:16:04;;;;;;;;;;;21.20;99.90;;;;;;5093969;28;20287;-65
2022/07/01 11:18:33;;;;;;;;;;;21.10;99.90;;;;;;5093340;28;20259;-64
2022/07/01 11:21:05;;;;;;;;;;;21.20;99.90;;;;;;5093781;28;20212;-64
2022/07/01 11:23:33;;;;;;;;;;;21.50;99.90;;;;;;5093163;28;20222;-64
2022/07/01 11:26:07;;;;;;;;;;;21.80;99.90;;;;;;5094041;28;20218;-64
2022/07/01 11:28:40;;;;;;;;;;;22.10;99.90;;;;;;5102348;28;20210;-64
2022/07/01 11:31:08;;;;;;;;;;;22.30;99.90;;;;;;5093478;28;20197;-64
2022/07/01 11:33:39;;;;;;;;;;;22.40;99.90;;;;;;5074731;28;20205;-65
2022/07/01 11:41:37;;;;;;;;;;;23.80;99.90;;;;;;5093371;28;20713;-64
2022/07/01 11:44:07;;;;;;;;;;;24.50;99.90;;;;;;5092597;28;20267;-66
2022/07/01 11:46:35;;;;;;;;;;;24.50;99.90;;;;;;5093343;28;20206;-67
2022/07/01 11:49:11;;;;;;;;;;;24.10;99.90;;;;;;5093464;28;20658;-67
2022/07/01 11:51:39;;;;;;;;;;;23.70;99.90;;;;;;5093611;28;20209;-67
2022/07/01 11:54:07;;;;;;;;;;;23.50;99.90;;;;;;5092228;28;20209;-67
2022/07/01 11:56:36;;;;;;;;;;;22.90;99.90;;;;;;5093034;28;20303;-67
2022/07/01 11:59:04;;;;;;;;;;;22.40;99.90;;;;;;5095631;28;20227;-64
2022/07/01 12:01:32;;;;;;;;;;;22.20;99.90;;;;;;5095022;28;20197;-64
2022/07/01 12:04:02;;;;;;;;;;;22.20;99.90;;;;;;5092523;28;20247;-64
2022/07/01 12:06:31;;;;;;;;;;;22.00;99.90;;;;;;5093867;28;20221;-64
2022/07/01 12:08:59;;;;;;;;;;;22.00;99.90;;;;;;5094837;28;20202;-63
2022/07/01 12:11:28;;;;;;;;;;;21.90;99.90;;;;;;5093050;28;20201;-64
2022/07/01 12:13:59;;;;;;;;;;;22.10;99.90;;;;;;5092380;28;20250;-64
2022/07/01 12:16:27;;;;;;;;;;;22.70;99.90;;;;;;5093310;28;20254;-64
2022/07/01 12:18:56;;;;;;;;;;;23.30;99.90;;;;;;5094153;28;20575;-64
2022/07/01 12:21:24;;;;;;;;;;;24.00;99.90;;;;;;5092508;28;20197;-64
2022/07/01 12:24:10;;;;;;;;;;;24.60;99.80;;;;;;5092330;28;20189;-65
2022/07/01 12:26:47;;;;;;;;;;;24.80;99.60;;;;;;5092619;28;20205;-64
2022/07/01 12:29:16;;;;;;;;;;;25.10;99.00;;;;;;5099800;28;20197;-65
2022/07/01 12:31:43;;;;;;;;;;;25.30;98.80;;;;;;5092083;28;20213;-64
2022/07/01 12:34:11;;;;;;;;;;;25.30;98.50;;;;;;5092305;28;20198;-64
2022/07/01 12:36:48;;;;;;;;;;;25.50;98.50;;;;;;5093618;28;20218;-64
2022/07/01 12:39:17;;;;;;;;;;;25.20;97.90;;;;;;5092664;28;20619;-64
2022/07/01 12:41:50;;;;;;;;;;;24.80;98.40;;;;;;5093029;28;20201;-64
2022/07/01 12:44:23;;;;;;;;;;;24.30;98.20;;;;;;5093695;28;20201;-67
2022/07/01 12:46:51;;;;;;;;;;;24.30;99.90;;;;;;5092809;28;20205;-67
2022/07/01 12:49:20;;;;;;;;;;;24.40;99.80;;;;;;5092376;28;20216;-67
2022/07/01 12:51:48;;;;;;;;;;;24.50;98.70;;;;;;5092003;28;20254;-67
2022/07/01 12:54:30;;;;;;;;;;;24.40;98.60;;;;;;5091577;28;20197;-67
2022/07/01 12:56:58;;;;;;;;;;;23.90;98.50;;;;;;5088265;28;20208;-66
2022/07/01 12:59:28;;;;;;;;;;;23.40;99.00;;;;;;5093462;28;20278;-64
2022/07/01 13:02:00;;;;;;;;;;;22.80;99.90;;;;;;5091945;28;20219;-64
2022/07/01 13:04:29;;;;;;;;;;;22.60;99.90;;;;;;5092167;28;20205;-64
2022/07/01 13:06:57;;;;;;;;;;;22.60;99.90;;;;;;5091704;28;20745;-64
2022/07/01 13:09:24;;;;;;;;;;;22.60;99.90;;;;;;5092118;28;20201;-64
2022/07/01 13:11:54;;;;;;;;;;;22.70;99.90;;;;;;5091763;28;20673;-64
2022/07/01 13:14:21;;;;;;;;;;;22.90;99.50;;;;;;5091442;28;20197;-64
2022/07/01 13:16:49;;;;;;;;;;;23.00;99.90;;;;;;5091920;28;20197;-64
2022/07/01 13:19:17;;;;;;;;;;;22.90;99.90;;;;;;5092086;28;20246;-64
2022/07/01 13:21:45;;;;;;;;;;;22.90;99.90;;;;;;5091524;28;20658;-64
2022/07/01 13:24:12;;;;;;;;;;;22.90;99.90;;;;;;5090947;28;20193;-64
2022/07/01 13:27:01;;;;;;;;;;;22.70;99.90;;;;;;5094599;28;20558;-64
2022/07/01 13:29:29;;;;;;;;;;;22.70;99.90;;;;;;5103708;28;20209;-65
2022/07/01 13:31:57;;;;;;;;;;;22.70;99.90;;;;;;5091227;28;20194;-64
2022/07/01 13:34:25;;;;;;;;;;;22.70;99.90;;;;;;5091444;28;20208;-64
2022/07/01 13:36:52;;;;;;;;;;;22.40;99.90;;;;;;5091646;28;20247;-64
2022/07/01 13:39:20;;;;;;;;;;;22.20;99.90;;;;;;5091986;28;20670;-64
2022/07/01 13:41:48;;;;;;;;;;;22.10;99.90;;;;;;5095110;28;20226;-64
2022/07/01 13:44:17;;;;;;;;;;;22.00;99.90;;;;;;5094941;28;20258;-64
2022/07/01 13:46:45;;;;;;;;;;;21.90;99.90;;;;;;5095444;28;20651;-63
2022/07/01 13:49:14;;;;;;;;;;;21.60;99.90;;;;;;5095834;28;20201;-66
2022/07/01 13:51:42;;;;;;;;;;;21.50;99.90;;;;;;5095750;28;20197;-66
2022/07/01 13:54:10;;;;;;;;;;;21.40;99.90;;;;;;5094955;28;20252;-67
2022/07/01 13:56:38;;;;;;;;;;;21.40;99.90;;;;;;5095220;28;20278;-67
2022/07/01 13:59:05;;;;;;;;;;;21.50;99.90;;;;;;5094793;28;20197;-66
2022/07/01 14:01:35;;;;;;;;;;;21.50;99.90;;;;;;5095569;28;20220;-67
2022/07/01 14:04:03;;;;;;;;;;;21.40;99.90;;;;;;5094610;28;20246;-66
2022/07/01 14:06:31;;;;;;;;;;;21.50;99.90;;;;;;5094971;28;20229;-67
2022/07/01 14:08:59;;;;;;;;;;;21.70;99.90;;;;;;5095543;28;20205;-63
2022/07/01 14:11:26;;;;;;;;;;;21.70;99.90;;;;;;5095386;28;20662;-64
2022/07/01 14:13:54;;;;;;;;;;;21.80;99.90;;;;;;5093925;28;20278;-64
2022/07/01 14:16:22;;;;;;;;;;;22.00;99.90;;;;;;5094940;28;20208;-64
2022/07/01 14:18:51;;;;;;;;;;;22.50;99.90;;;;;;5095399;28;20292;-64
2022/07/01 14:21:20;;;;;;;;;;;22.60;99.90;;;;;;5095254;28;20201;-64
2022/07/01 14:23:48;;;;;;;;;;;22.70;99.90;;;;;;5094254;28;20243;-64
2022/07/01 14:26:22;;;;;;;;;;;22.70;99.90;;;;;;5095255;28;20210;-65
2022/07/01 14:28:50;;;;;;;;;;;22.90;99.90;;;;;;5103044;28;20255;-64
2022/07/01 14:31:18;;;;;;;;;;;23.20;99.90;;;;;;5097755;28;20205;-65
2022/07/01 14:33:46;;;;;;;;;;;23.60;99.90;;;;;;5094054;28;20197;-64
2022/07/01 14:36:15;;;;;;;;;;;24.10;99.90;;;;;;5094737;28;20201;-64
2022/07/01 14:38:43;;;;;;;;;;;24.30;99.50;;;;;;5094737;28;20209;-64
2022/07/01 14:41:10;;;;;;;;;;;24.10;99.60;;;;;;5094895;28;20549;-64
2022/07/01 14:43:39;;;;;;;;;;;23.70;99.90;;;;;;5093808;28;20201;-64
2022/07/01 14:46:08;;;;;;;;;;;23.50;99.50;;;;;;5094228;28;20201;-64